createdAt,value
2019-02-04T00:00:13.945Z,1.63
2019-02-04T00:02:41.513Z,1.41
2019-02-04T00:05:08.697Z,1.28
2019-02-04T00:07:35.927Z,1.13
2019-02-04T00:10:04.124Z,0.87
2019-02-04T00:12:31.271Z,0.69
2019-02-04T00:14:58.575Z,0.56
2019-02-04T00:17:25.709Z,0.49
2019-02-04T00:19:53.507Z,0.47
2019-02-04T00:22:20.698Z,0.56
2019-02-04T00:24:47.840Z,0.50
2019-02-04T00:27:15.019Z,0.31
2019-02-04T00:29:42.444Z,0.21
2019-02-04T00:32:09.664Z,0.17
2019-02-04T00:34:36.830Z,0.11
2019-02-04T00:37:04.441Z,0.07
2019-02-04T00:39:31.575Z,0.08
2019-02-04T00:41:58.754Z,0.02
2019-02-04T00:44:25.934Z,-0.06
2019-02-04T00:46:53.149Z,-0.08
2019-02-04T00:49:20.296Z,-0.12
2019-02-04T00:51:47.476Z,-0.12
2019-02-04T00:54:14.926Z,-0.16
2019-02-04T00:56:42.086Z,-0.22
2019-02-04T00:59:09.357Z,-0.24
2019-02-04T01:01:36.803Z,-0.28
2019-02-04T01:04:04.518Z,-0.25
2019-02-04T01:06:31.697Z,-0.23
2019-02-04T01:08:58.867Z,-0.29
2019-02-04T01:11:26.214Z,-0.36
2019-02-04T01:13:53.390Z,-0.34
2019-02-04T01:16:20.631Z,-0.25
2019-02-04T01:18:47.780Z,-0.07
2019-02-04T01:21:15.189Z,-0.01
2019-02-04T01:23:42.524Z,-0.02
2019-02-04T01:26:09.661Z,-0.09
2019-02-04T01:28:37.174Z,-0.17
2019-02-04T01:31:04.348Z,-0.33
2019-02-04T01:33:31.501Z,-0.32
2019-02-04T01:35:58.680Z,-0.25
2019-02-04T01:38:25.835Z,-0.35
2019-02-04T01:40:53.385Z,-0.44
2019-02-04T01:43:20.576Z,-0.53
2019-02-04T01:45:47.881Z,-0.55
2019-02-04T01:48:14.942Z,-0.64
2019-02-04T01:50:42.067Z,-0.69
2019-02-04T01:53:09.213Z,-0.64
2019-02-04T01:55:36.389Z,-0.66
2019-02-04T01:58:03.589Z,-0.60
2019-02-04T02:00:33.129Z,-0.59
2019-02-04T02:03:00.240Z,-0.62
2019-02-04T02:05:27.455Z,-0.67
2019-02-04T02:07:54.955Z,-0.66
2019-02-04T02:10:22.485Z,-0.75
2019-02-04T02:12:49.976Z,-0.76
2019-02-04T02:15:17.735Z,-0.79
2019-02-04T02:17:45.306Z,-0.81
2019-02-04T02:20:15.248Z,-0.84
2019-02-04T02:22:42.498Z,-0.76
2019-02-04T02:25:09.933Z,-0.81
2019-02-04T02:27:37.115Z,-0.81
2019-02-04T02:30:07.322Z,-0.34
2019-02-04T02:32:34.790Z,-0.26
2019-02-04T02:35:01.943Z,-0.37
2019-02-04T02:37:29.075Z,-0.49
2019-02-04T02:39:56.205Z,-0.52
2019-02-04T02:42:23.385Z,-0.46
2019-02-04T02:44:50.849Z,-0.65
2019-02-04T02:47:17.998Z,-0.81
2019-02-04T02:49:45.311Z,-0.87
2019-02-04T02:52:13.089Z,-0.85
2019-02-04T02:54:40.272Z,-0.87
2019-02-04T02:57:07.458Z,-0.83
2019-02-04T02:59:34.603Z,-0.85
2019-02-04T03:02:01.785Z,-0.87
2019-02-04T03:04:28.945Z,-0.96
2019-02-04T03:06:56.112Z,-1.00
2019-02-04T03:09:23.550Z,-0.91
2019-02-04T03:11:50.881Z,-0.66
2019-02-04T03:14:18.032Z,-0.54
2019-02-04T03:16:45.077Z,-0.49
2019-02-04T03:19:12.568Z,-0.70
2019-02-04T03:21:39.739Z,-0.87
2019-02-04T03:24:06.792Z,-1.01
2019-02-04T03:26:33.953Z,-1.06
2019-02-04T03:29:01.069Z,-1.03
2019-02-04T03:31:28.240Z,-1.09
2019-02-04T03:33:55.790Z,-1.15
2019-02-04T03:36:23.212Z,-1.23
2019-02-04T03:38:50.459Z,-1.15
2019-02-04T03:41:17.644Z,-1.12
2019-02-04T03:43:45.007Z,-0.81
2019-02-04T03:46:12.162Z,-0.80
2019-02-04T03:48:39.323Z,-0.82
2019-02-04T03:51:06.824Z,-0.89
2019-02-04T03:53:33.989Z,-0.80
2019-02-04T03:56:01.048Z,-0.76
2019-02-04T03:58:28.488Z,-0.88
2019-02-04T04:00:55.684Z,-0.89
2019-02-04T04:03:22.947Z,-0.81
2019-02-04T04:05:50.117Z,-0.85
2019-02-04T04:08:17.256Z,-0.92
2019-02-04T04:10:44.691Z,-0.88
2019-02-04T04:13:12.090Z,-0.99
2019-02-04T04:15:39.714Z,-0.99
2019-02-04T04:18:15.435Z,-1.05
2019-02-04T04:20:35.739Z,-1.05
2019-02-04T04:23:02.890Z,-1.04
2019-02-04T04:25:31.662Z,-0.92
2019-02-04T04:27:59.119Z,-0.91
2019-02-04T04:30:26.212Z,-0.98
2019-02-04T04:32:53.786Z,-1.02
2019-02-04T04:35:20.956Z,-1.16
2019-02-04T04:37:48.191Z,-1.25
2019-02-04T04:40:15.688Z,-1.32
2019-02-04T04:42:42.883Z,-1.44
2019-02-04T04:45:11.963Z,-1.54
2019-02-04T04:47:39.019Z,-1.61
2019-02-04T04:50:07.162Z,-1.54
2019-02-04T04:52:34.329Z,-1.46
2019-02-04T04:55:01.634Z,-1.55
2019-02-04T04:57:28.829Z,-1.66
2019-02-04T04:59:55.992Z,-1.65
2019-02-04T05:02:23.148Z,-1.58
2019-02-04T05:04:50.291Z,-1.65
2019-02-04T05:07:17.744Z,-1.77
2019-02-04T05:09:44.922Z,-1.88
2019-02-04T05:12:12.075Z,-1.85
2019-02-04T05:14:39.226Z,-1.82
2019-02-04T05:17:06.405Z,-1.84
2019-02-04T05:19:33.553Z,-1.88
2019-02-04T05:22:00.736Z,-1.92
2019-02-04T05:24:28.206Z,-1.97
2019-02-04T05:26:55.378Z,-1.97
2019-02-04T05:29:22.760Z,-1.97
2019-02-04T05:31:49.965Z,-1.98
2019-02-04T05:34:17.094Z,-1.90
2019-02-04T05:36:44.536Z,-1.87
2019-02-04T05:39:11.732Z,-1.86
2019-02-04T05:41:39.098Z,-1.89
2019-02-04T05:44:06.261Z,-1.91
2019-02-04T05:46:33.468Z,-1.90
2019-02-04T05:49:00.612Z,-1.89
2019-02-04T05:51:28.072Z,-1.95
2019-02-04T05:53:55.262Z,-2.03
2019-02-04T05:56:22.702Z,-1.93
2019-02-04T05:58:50.091Z,-1.86
2019-02-04T06:01:17.251Z,-1.66
2019-02-04T06:03:44.396Z,-1.71
2019-02-04T06:06:11.560Z,-1.74
2019-02-04T06:08:38.731Z,-1.50
2019-02-04T06:11:06.201Z,-1.42
2019-02-04T06:13:33.343Z,-1.41
2019-02-04T06:16:00.884Z,-1.43
2019-02-04T06:18:28.035Z,-1.48
2019-02-04T06:20:55.104Z,-1.56
2019-02-04T06:23:22.582Z,-1.57
2019-02-04T06:25:49.653Z,-1.66
2019-02-04T06:28:16.781Z,-1.78
2019-02-04T06:30:43.989Z,-1.90
2019-02-04T06:33:11.651Z,-1.81
2019-02-04T06:35:38.728Z,-1.60
2019-02-04T06:38:05.910Z,-1.49
2019-02-04T06:40:33.122Z,-1.62
2019-02-04T06:43:00.253Z,-1.78
2019-02-04T06:45:27.450Z,-1.89
2019-02-04T06:47:54.491Z,-1.99
2019-02-04T06:50:21.939Z,-2.01
2019-02-04T06:52:49.153Z,-2.00
2019-02-04T06:55:22.062Z,-2.01
2019-02-04T06:57:49.233Z,-2.01
2019-02-04T07:00:16.609Z,-2.01
2019-02-04T07:02:43.949Z,-2.01
2019-02-04T07:05:11.829Z,-1.99
2019-02-04T07:07:38.879Z,-1.88
2019-02-04T07:10:08.339Z,-1.76
2019-02-04T07:12:35.400Z,-1.64
2019-02-04T07:15:03.006Z,-1.55
2019-02-04T07:17:30.238Z,-1.48
2019-02-04T07:19:57.683Z,-1.44
2019-02-04T07:22:24.875Z,-1.37
2019-02-04T07:24:52.239Z,-1.30
2019-02-04T07:27:22.347Z,-1.19
2019-02-04T07:29:48.463Z,-1.02
2019-02-04T07:32:15.880Z,-0.91
2019-02-04T07:34:43.040Z,-0.77
2019-02-04T07:37:10.303Z,-0.64
2019-02-04T07:39:37.480Z,-0.39
2019-02-04T07:42:04.938Z,-0.13
2019-02-04T07:44:32.147Z,0.08
2019-02-04T07:46:59.293Z,0.34
2019-02-04T07:49:35.003Z,0.61
2019-02-04T07:51:55.519Z,0.73
2019-02-04T07:54:22.623Z,0.85
2019-02-04T07:56:49.815Z,0.94
2019-02-04T07:59:17.267Z,1.15
2019-02-04T08:01:44.417Z,2.17
2019-02-04T08:04:11.600Z,3.93
2019-02-04T08:06:38.813Z,5.50
2019-02-04T08:09:07.622Z,6.66
2019-02-04T08:11:35.041Z,8.00
2019-02-04T08:14:02.308Z,9.06
2019-02-04T08:16:29.693Z,10.04
2019-02-04T08:18:56.968Z,10.96
2019-02-04T08:21:24.195Z,11.47
2019-02-04T08:23:51.369Z,12.01
2019-02-04T08:26:18.563Z,12.19
2019-02-04T08:28:45.756Z,12.47
2019-02-04T08:31:12.805Z,12.32
2019-02-04T08:33:40.261Z,11.57
2019-02-04T08:36:07.615Z,10.45
2019-02-04T08:38:35.080Z,9.52
2019-02-04T08:41:02.236Z,8.65
2019-02-04T08:43:29.478Z,8.37
2019-02-04T08:45:56.638Z,7.98
2019-02-04T08:48:23.783Z,7.45
2019-02-04T08:50:50.912Z,6.82
2019-02-04T08:53:18.095Z,6.43
2019-02-04T08:55:45.270Z,6.19
2019-02-04T08:58:12.838Z,6.16
2019-02-04T09:00:40.052Z,6.03
2019-02-04T09:03:07.120Z,5.95
2019-02-04T09:05:34.229Z,5.81
2019-02-04T09:08:01.420Z,5.73
2019-02-04T09:10:30.452Z,5.75
2019-02-04T09:12:58.115Z,5.90
2019-02-04T09:15:25.615Z,5.98
2019-02-04T09:17:52.968Z,6.09
2019-02-04T09:20:20.397Z,6.23
2019-02-04T09:22:47.570Z,6.24
2019-02-04T09:25:15.222Z,6.08
2019-02-04T09:27:42.445Z,5.96
2019-02-04T09:30:13.304Z,6.12
2019-02-04T09:32:40.510Z,6.18
2019-02-04T09:35:09.378Z,6.20
2019-02-04T09:37:36.636Z,6.31
2019-02-04T09:40:04.288Z,6.39
2019-02-04T09:42:31.907Z,6.47
2019-02-04T09:44:59.410Z,6.49
2019-02-04T09:47:26.704Z,6.57
2019-02-04T09:49:53.898Z,6.56
2019-02-04T09:52:21.208Z,6.40
2019-02-04T09:54:48.743Z,6.22
2019-02-04T09:57:15.988Z,6.09
2019-02-04T09:59:43.046Z,6.14
2019-02-04T10:02:10.318Z,6.04
2019-02-04T10:04:37.797Z,6.02
2019-02-04T10:07:05.289Z,5.99
2019-02-04T10:09:32.692Z,5.85
2019-02-04T10:11:59.907Z,5.76
2019-02-04T10:14:27.106Z,5.60
2019-02-04T10:16:54.369Z,5.55
2019-02-04T10:19:21.660Z,5.63
2019-02-04T10:21:48.784Z,5.73
2019-02-04T10:24:16.084Z,5.66
2019-02-04T10:26:43.272Z,5.68
2019-02-04T10:29:10.430Z,5.66
2019-02-04T10:31:38.218Z,5.79
2019-02-04T10:34:05.419Z,5.83
2019-02-04T10:36:32.492Z,5.77
2019-02-04T10:38:59.675Z,5.79
2019-02-04T10:41:26.772Z,5.76
2019-02-04T10:43:54.274Z,5.75
2019-02-04T10:46:21.415Z,5.74
2019-02-04T10:48:48.930Z,5.79
2019-02-04T10:51:16.122Z,5.94
2019-02-04T10:53:43.268Z,6.08
2019-02-04T10:56:10.913Z,6.20
2019-02-04T10:58:38.065Z,6.38
2019-02-04T11:01:05.613Z,6.40
2019-02-04T11:03:32.795Z,6.56
2019-02-04T11:05:59.884Z,6.64
2019-02-04T11:08:27.243Z,6.72
2019-02-04T11:10:54.546Z,6.77
2019-02-04T11:13:21.957Z,6.84
2019-02-04T11:15:49.949Z,6.91
2019-02-04T11:18:17.195Z,7.09
2019-02-04T11:20:57.231Z,7.22
2019-02-04T11:23:14.149Z,7.36
2019-02-04T11:25:41.850Z,7.51
2019-02-04T11:28:10.416Z,7.70
2019-02-04T11:30:40.460Z,7.82
2019-02-04T11:33:08.202Z,7.91
2019-02-04T11:35:35.387Z,8.00
2019-02-04T11:38:02.678Z,8.17
2019-02-04T11:40:32.230Z,8.21
2019-02-04T11:42:59.356Z,8.20
2019-02-04T11:45:27.283Z,8.31
2019-02-04T11:47:54.434Z,8.34
2019-02-04T11:50:21.853Z,8.31
2019-02-04T11:52:49.038Z,8.41
2019-02-04T11:55:16.342Z,8.55
2019-02-04T11:57:43.633Z,8.75
2019-02-04T12:00:14.532Z,8.80
2019-02-04T12:02:42.464Z,8.84
2019-02-04T12:05:11.384Z,8.85
2019-02-04T12:07:38.624Z,8.77
2019-02-04T12:10:08.004Z,8.62
2019-02-04T12:12:35.262Z,8.68
2019-02-04T12:15:02.681Z,8.72
2019-02-04T12:17:29.953Z,8.66
2019-02-04T12:19:57.139Z,8.36
2019-02-04T12:22:24.346Z,8.25
2019-02-04T12:24:51.532Z,8.32
2019-02-04T12:27:18.738Z,8.51
2019-02-04T12:29:45.886Z,8.55
2019-02-04T12:32:13.120Z,8.62
2019-02-04T12:34:40.278Z,8.74
2019-02-04T12:37:07.727Z,8.74
2019-02-04T12:39:35.277Z,8.82
2019-02-04T12:42:02.479Z,8.77
2019-02-04T12:44:29.644Z,8.79
2019-02-04T12:46:56.784Z,8.69
2019-02-04T12:49:23.933Z,8.61
2019-02-04T12:51:51.327Z,8.63
2019-02-04T12:54:18.865Z,8.64
2019-02-04T12:56:46.135Z,8.66
2019-02-04T12:59:13.587Z,8.62
2019-02-04T13:01:41.095Z,8.54
2019-02-04T13:04:08.273Z,8.58
2019-02-04T13:06:35.487Z,8.42
2019-02-04T13:09:05.721Z,8.19
2019-02-04T13:11:33.881Z,8.04
2019-02-04T13:14:01.069Z,7.93
2019-02-04T13:16:28.239Z,7.92
2019-02-04T13:18:55.419Z,8.01
2019-02-04T13:21:22.864Z,8.13
2019-02-04T13:23:50.065Z,8.19
2019-02-04T13:26:17.245Z,8.33
2019-02-04T13:28:44.622Z,8.25
2019-02-04T13:31:12.903Z,8.25
2019-02-04T13:33:40.249Z,8.32
2019-02-04T13:36:07.607Z,8.30
2019-02-04T13:38:34.799Z,8.19
2019-02-04T13:41:09.572Z,8.12
2019-02-04T13:43:31.667Z,8.11
2019-02-04T13:45:59.261Z,8.19
2019-02-04T13:48:26.425Z,8.29
2019-02-04T13:50:53.523Z,8.27
2019-02-04T13:53:20.921Z,8.23
2019-02-04T13:55:48.638Z,8.26
2019-02-04T13:58:15.853Z,8.28
2019-02-04T14:00:43.107Z,8.27
2019-02-04T14:03:10.162Z,8.14
2019-02-04T14:05:37.551Z,8.03
2019-02-04T14:08:05.673Z,7.84
2019-02-04T14:10:34.808Z,7.67
2019-02-04T14:13:02.305Z,7.48
2019-02-04T14:15:29.803Z,7.38
2019-02-04T14:17:57.204Z,7.32
2019-02-04T14:20:24.367Z,7.13
2019-02-04T14:22:53.440Z,7.01
2019-02-04T14:25:20.875Z,6.96
2019-02-04T14:27:48.053Z,6.82
2019-02-04T14:30:21.958Z,6.74
2019-02-04T14:32:49.487Z,6.82
2019-02-04T14:35:16.710Z,6.72
2019-02-04T14:37:45.138Z,6.75
2019-02-04T14:40:18.948Z,6.78
2019-02-04T14:42:42.042Z,6.76
2019-02-04T14:45:16.799Z,6.79
2019-02-04T14:48:09.957Z,6.90
2019-02-04T14:51:02.421Z,6.87
2019-02-04T14:53:52.988Z,6.87
2019-02-04T14:57:14.089Z,7.13
2019-02-04T14:59:55.382Z,7.06
2019-02-04T15:02:58.101Z,6.87
2019-02-04T15:06:06.308Z,6.72
2019-02-04T15:09:04.073Z,6.72
2019-02-04T15:12:13.636Z,6.70
2019-02-04T15:15:09.698Z,6.54
2019-02-04T15:17:50.029Z,6.49
2019-02-04T15:20:57.147Z,6.54
2019-02-04T15:23:36.586Z,6.31
2019-02-04T15:26:52.578Z,6.04
2019-02-04T15:29:53.404Z,5.90
2019-02-04T15:32:45.082Z,5.80
2019-02-04T15:35:52.790Z,5.68
2019-02-04T15:38:59.372Z,5.57
2019-02-04T15:41:55.257Z,5.49
2019-02-04T15:44:57.489Z,5.43
2019-02-04T15:47:33.657Z,5.41
2019-02-04T15:51:04.082Z,5.52
2019-02-04T15:53:31.447Z,5.47
2019-02-04T15:55:59.532Z,5.31
2019-02-04T15:58:27.027Z,5.20
2019-02-04T16:00:54.484Z,5.07
2019-02-04T16:03:21.773Z,5.03
2019-02-04T16:05:48.884Z,5.02
2019-02-04T16:08:16.149Z,5.04
2019-02-04T16:10:43.323Z,5.02
2019-02-04T16:13:10.540Z,5.02
2019-02-04T16:15:37.957Z,4.93
2019-02-04T16:18:05.228Z,4.93
2019-02-04T16:20:32.335Z,5.05
2019-02-04T16:22:59.542Z,5.14
2019-02-04T16:25:27.071Z,5.09
2019-02-04T16:27:54.421Z,4.96
2019-02-04T16:30:21.631Z,5.00
2019-02-04T16:32:48.705Z,5.05
2019-02-04T16:35:16.901Z,4.96
2019-02-04T16:37:44.384Z,4.79
2019-02-04T16:40:13.753Z,4.68
2019-02-04T16:42:40.976Z,4.60
2019-02-04T16:45:08.503Z,4.54
2019-02-04T16:47:35.809Z,4.47
2019-02-04T16:50:04.327Z,4.41
2019-02-04T16:52:31.601Z,4.45
2019-02-04T16:54:59.089Z,4.53
2019-02-04T16:57:26.301Z,4.67
2019-02-04T16:59:53.463Z,4.61
2019-02-04T17:02:20.593Z,4.56
2019-02-04T17:04:47.869Z,4.47
2019-02-04T17:07:15.344Z,4.47
2019-02-04T17:09:42.749Z,4.38
2019-02-04T17:12:10.047Z,4.31
2019-02-04T17:14:37.192Z,4.21
2019-02-04T17:17:04.730Z,4.12
2019-02-04T17:19:32.203Z,4.03
2019-02-04T17:21:59.469Z,3.98
2019-02-04T17:24:26.625Z,4.04
2019-02-04T17:26:54.033Z,4.14
2019-02-04T17:29:21.198Z,4.09
2019-02-04T17:31:48.401Z,4.03
2019-02-04T17:34:15.683Z,3.99
2019-02-04T17:36:42.894Z,4.10
2019-02-04T17:39:10.176Z,4.10
2019-02-04T17:41:37.848Z,3.97
2019-02-04T17:44:05.835Z,3.84
2019-02-04T17:46:33.096Z,3.73
2019-02-04T17:49:00.305Z,3.65
2019-02-04T17:51:27.594Z,3.58
2019-02-04T17:53:55.054Z,3.56
2019-02-04T17:56:22.265Z,3.53
2019-02-04T17:58:49.505Z,3.53
2019-02-04T18:01:17.201Z,3.48
2019-02-04T18:03:44.399Z,3.45
2019-02-04T18:06:11.611Z,3.53
2019-02-04T18:08:39.092Z,3.56
2019-02-04T18:11:06.334Z,3.61
2019-02-04T18:13:34.066Z,3.55
2019-02-04T18:16:01.272Z,3.48
2019-02-04T18:18:28.797Z,3.38
2019-02-04T18:20:55.902Z,3.31
2019-02-04T18:23:23.111Z,3.19
2019-02-04T18:25:51.064Z,3.08
2019-02-04T18:28:18.247Z,2.99
2019-02-04T18:30:45.324Z,2.86
2019-02-04T18:33:12.513Z,2.76
2019-02-04T18:35:39.866Z,2.67
2019-02-04T18:38:07.093Z,2.61
2019-02-04T18:40:34.339Z,2.54
2019-02-04T18:43:01.999Z,2.50
2019-02-04T18:45:30.255Z,2.53
2019-02-04T18:47:59.934Z,2.50
2019-02-04T18:50:28.263Z,2.47
2019-02-04T18:52:55.462Z,2.48
2019-02-04T18:55:25.298Z,2.50
2019-02-04T18:57:52.494Z,2.47
2019-02-04T19:00:21.679Z,2.43
2019-02-04T19:02:48.788Z,2.38
2019-02-04T19:05:16.514Z,2.23
2019-02-04T19:07:43.604Z,2.11
2019-02-04T19:10:12.272Z,2.00
2019-02-04T19:12:39.606Z,1.95
2019-02-04T19:15:10.445Z,1.82
2019-02-04T19:17:37.785Z,1.73
2019-02-04T19:20:06.837Z,1.65
2019-02-04T19:22:34.371Z,1.65
2019-02-04T19:25:01.872Z,1.66
2019-02-04T19:27:29.186Z,1.78
2019-02-04T19:29:56.447Z,1.96
2019-02-04T19:32:23.674Z,2.12
2019-02-04T19:34:50.827Z,2.11
2019-02-04T19:37:18.028Z,2.08
2019-02-04T19:39:45.522Z,2.06
2019-02-04T19:42:12.704Z,2.04
2019-02-04T19:44:39.968Z,2.04
2019-02-04T19:47:07.160Z,2.04
2019-02-04T19:49:34.229Z,2.11
2019-02-04T19:52:01.439Z,2.14
2019-02-04T19:54:28.812Z,2.18
2019-02-04T19:56:55.970Z,2.24
2019-02-04T19:59:23.220Z,2.28
2019-02-04T20:01:50.500Z,2.30
2019-02-04T20:04:17.687Z,2.32
2019-02-04T20:06:44.906Z,2.33
2019-02-04T20:09:12.291Z,2.32
2019-02-04T20:11:39.770Z,2.33
2019-02-04T20:14:07.796Z,2.35
2019-02-04T20:16:35.330Z,2.39
2019-02-04T20:19:02.543Z,2.39
2019-02-04T20:21:29.762Z,2.43
2019-02-04T20:23:56.890Z,2.45
2019-02-04T20:26:24.087Z,2.51
2019-02-04T20:28:51.304Z,2.55
2019-02-04T20:31:18.541Z,2.66
2019-02-04T20:33:47.663Z,2.75
2019-02-04T20:36:14.888Z,2.78
2019-02-04T20:38:42.511Z,2.90
2019-02-04T20:41:09.694Z,2.96
2019-02-04T20:43:36.873Z,2.90
2019-02-04T20:46:04.288Z,2.83
2019-02-04T20:48:31.516Z,2.81
2019-02-04T20:51:00.257Z,2.80
2019-02-04T20:53:27.467Z,2.78
2019-02-04T20:55:54.727Z,2.77
2019-02-04T20:58:21.944Z,2.81
2019-02-04T21:00:49.175Z,2.90
2019-02-04T21:03:16.292Z,2.93
2019-02-04T21:05:43.389Z,2.99
2019-02-04T21:08:10.927Z,3.16
2019-02-04T21:10:38.299Z,3.11
2019-02-04T21:13:05.636Z,3.07
2019-02-04T21:15:32.945Z,3.04
2019-02-04T21:18:00.033Z,3.04
2019-02-04T21:20:27.262Z,3.09
2019-02-04T21:22:54.584Z,3.10
2019-02-04T21:25:21.764Z,3.12
2019-02-04T21:27:49.460Z,3.13
2019-02-04T21:30:24.598Z,3.18
2019-02-04T21:32:52.065Z,3.22
2019-02-04T21:35:19.345Z,3.28
2019-02-04T21:37:46.596Z,3.38
2019-02-04T21:40:14.020Z,3.44
2019-02-04T21:42:41.501Z,3.53
2019-02-04T21:45:10.404Z,3.51
2019-02-04T21:47:37.544Z,3.52
2019-02-04T21:50:08.154Z,3.58
2019-02-04T21:52:35.364Z,3.60
2019-02-04T21:55:08.561Z,3.68
2019-02-04T21:57:32.373Z,3.76
2019-02-04T21:59:59.828Z,3.70
2019-02-04T22:02:27.348Z,3.73
2019-02-04T22:04:54.438Z,3.80
2019-02-04T22:07:21.648Z,3.70
2019-02-04T22:09:48.910Z,3.67
2019-02-04T22:12:16.416Z,3.74
2019-02-04T22:14:43.608Z,3.74
2019-02-04T22:17:11.182Z,3.73
2019-02-04T22:19:38.420Z,3.71
2019-02-04T22:22:05.917Z,3.81
2019-02-04T22:24:33.084Z,3.80
2019-02-04T22:27:00.269Z,3.73
2019-02-04T22:29:27.452Z,3.77
2019-02-04T22:31:54.934Z,3.78
2019-02-04T22:34:22.289Z,3.75
2019-02-04T22:36:49.843Z,3.77
2019-02-04T22:39:17.005Z,3.73
2019-02-04T22:41:44.105Z,3.74
2019-02-04T22:44:11.288Z,3.70
2019-02-04T22:46:38.429Z,3.69
2019-02-04T22:49:05.668Z,3.68
2019-02-04T22:51:32.994Z,3.66
2019-02-04T22:54:00.267Z,3.64
2019-02-04T22:56:27.453Z,3.78
2019-02-04T22:58:54.671Z,3.91
2019-02-04T23:01:37.141Z,4.01
2019-02-04T23:04:05.205Z,3.90
2019-02-04T23:06:32.401Z,3.72
2019-02-04T23:08:59.961Z,3.59
2019-02-04T23:11:27.168Z,3.53
2019-02-04T23:13:54.357Z,3.52
2019-02-04T23:16:21.557Z,3.53
2019-02-04T23:18:48.757Z,3.50
2019-02-04T23:21:15.953Z,3.61
2019-02-04T23:23:43.001Z,3.55
2019-02-04T23:26:10.525Z,3.50
2019-02-04T23:28:37.823Z,3.48
2019-02-04T23:31:05.001Z,3.54
2019-02-04T23:33:34.208Z,3.64
2019-02-04T23:36:01.118Z,3.69
2019-02-04T23:38:28.584Z,3.74
2019-02-04T23:40:55.845Z,3.76
2019-02-04T23:43:23.300Z,3.74
2019-02-04T23:45:50.510Z,3.67
2019-02-04T23:48:18.051Z,3.56
2019-02-04T23:50:45.268Z,3.56
2019-02-04T23:53:12.440Z,3.52
2019-02-04T23:55:39.945Z,3.53
2019-02-04T23:58:07.130Z,3.58
